Time;durP1;ratioP1;P1;durP2;ratioP2;P2;SDS_P1;SDS_P2;PMS_P1;PMS_P2;Temp;Humidity;BMP_temperature;BMP_pressure;BME280_temperature;BME280_humidity;BME280_pressure;Samples;Min_cycle;Max_cycle;Signal;HPM_P1;HPM_P2
2023/08/14 00:01:00;;;;;;;6.65;2.58;;;;;;;;;;21005321;28;20037;-69
2023/08/14 00:11:01;;;;;;;4.75;2.40;;;;;;;;;;21003917;28;20047;-68
2023/08/14 00:21:02;;;;;;;3.03;2.22;;;;;;;;;;21002306;28;20056;-69
2023/08/14 00:31:03;;;;;;;3.83;2.13;;;;;;;;;;21002967;28;20041;-69
2023/08/14 00:41:04;;;;;;;6.00;2.08;;;;;;;;;;21002452;28;20037;-68
2023/08/14 00:51:06;;;;;;;3.35;2.15;;;;;;;;;;21000696;28;20053;-68
2023/08/14 01:01:07;;;;;;;4.05;2.35;;;;;;;;;;20999205;28;20052;-69
2023/08/14 01:11:12;;;;;;;4.75;2.35;;;;;;;;;;20999581;28;20610;-68
2023/08/14 01:21:34;;;;;;;4.32;2.00;;;;;;;;;;20998530;28;20500;-69
2023/08/14 01:31:35;;;;;;;2.97;1.80;;;;;;;;;;20986977;28;20395;-69
2023/08/14 01:41:54;;;;;;;5.80;2.22;;;;;;;;;;20997434;28;20409;-68
2023/08/14 01:51:55;;;;;;;6.13;1.98;;;;;;;;;;20996175;28;20475;-69
2023/08/14 02:01:57;;;;;;;4.35;2.53;;;;;;;;;;20996872;28;20064;-69
2023/08/14 02:11:58;;;;;;;4.82;1.95;;;;;;;;;;20996569;28;20040;-68
2023/08/14 02:21:59;;;;;;;4.35;2.53;;;;;;;;;;20996350;28;20114;-68
2023/08/14 02:32:00;;;;;;;3.78;2.15;;;;;;;;;;20995799;28;20047;-68
2023/08/14 02:42:01;;;;;;;6.95;2.88;;;;;;;;;;20994719;28;20093;-69
2023/08/14 02:52:02;;;;;;;2.85;1.70;;;;;;;;;;21005275;28;20059;-68
2023/08/14 03:02:03;;;;;;;3.80;2.60;;;;;;;;;;21010507;28;20067;-68
2023/08/14 03:12:05;;;;;;;5.95;2.33;;;;;;;;;;21009424;28;20512;-68
2023/08/14 03:22:06;;;;;;;7.65;2.10;;;;;;;;;;21008982;28;20070;-68
2023/08/14 03:32:07;;;;;;;5.35;2.47;;;;;;;;;;21006652;28;20052;-68
2023/08/14 03:42:08;;;;;;;3.90;2.30;;;;;;;;;;21007377;28;20044;-68
2023/08/14 03:52:09;;;;;;;5.15;2.10;;;;;;;;;;21005398;28;20059;-68
2023/08/14 04:02:11;;;;;;;3.33;2.00;;;;;;;;;;21004869;28;20102;-68
2023/08/14 04:12:12;;;;;;;4.93;2.53;;;;;;;;;;21003729;28;20045;-68
2023/08/14 04:22:13;;;;;;;4.78;2.30;;;;;;;;;;21002627;28;20494;-68
2023/08/14 04:32:14;;;;;;;4.50;2.65;;;;;;;;;;21002973;28;20382;-68
2023/08/14 04:42:15;;;;;;;4.57;1.90;;;;;;;;;;21002730;28;20070;-67
2023/08/14 04:52:16;;;;;;;5.30;2.42;;;;;;;;;;21002668;28;20482;-67
2023/08/14 05:02:17;;;;;;;7.35;2.72;;;;;;;;;;20999925;28;20045;-68
2023/08/14 05:12:18;;;;;;;4.72;2.30;;;;;;;;;;20999221;28;20046;-68
2023/08/14 05:22:20;;;;;;;3.13;1.77;;;;;;;;;;20999253;28;20557;-67
2023/08/14 05:32:21;;;;;;;5.80;2.00;;;;;;;;;;20998593;28;20460;-67
2023/08/14 05:42:22;;;;;;;6.82;2.60;;;;;;;;;;20998026;28;20049;-67
2023/08/14 05:52:23;;;;;;;8.07;2.45;;;;;;;;;;20998038;28;20071;-68
2023/08/14 06:02:24;;;;;;;7.03;2.60;;;;;;;;;;20997049;28;20056;-68
2023/08/14 06:12:25;;;;;;;6.82;2.42;;;;;;;;;;20996814;28;20040;-67
2023/08/14 06:22:26;;;;;;;8.60;2.75;;;;;;;;;;21001259;28;20401;-68
2023/08/14 06:32:27;;;;;;;11.73;2.83;;;;;;;;;;21012462;28;20044;-68
2023/08/14 06:42:29;;;;;;;6.40;2.88;;;;;;;;;;21011723;28;20048;-68
2023/08/14 06:52:30;;;;;;;8.93;2.63;;;;;;;;;;21009205;28;20105;-67
2023/08/14 07:02:31;;;;;;;13.38;2.70;;;;;;;;;;21009906;28;20052;-68
2023/08/14 07:12:32;;;;;;;4.65;2.35;;;;;;;;;;21007551;28;20044;-64
2023/08/14 07:22:33;;;;;;;6.80;2.85;;;;;;;;;;21008424;28;20523;-64
2023/08/14 07:32:35;;;;;;;8.20;2.30;;;;;;;;;;21006891;28;20053;-64
2023/08/14 07:42:36;;;;;;;9.15;2.53;;;;;;;;;;21005754;28;20044;-64
2023/08/14 07:52:37;;;;;;;7.93;2.35;;;;;;;;;;21004905;28;20102;-64
2023/08/14 08:02:38;;;;;;;5.78;2.45;;;;;;;;;;21005493;28;20051;-64
2023/08/14 08:12:39;;;;;;;6.47;2.50;;;;;;;;;;21004711;28;20405;-64
2023/08/14 08:22:40;;;;;;;8.45;2.40;;;;;;;;;;21003914;28;20543;-64
2023/08/14 08:32:41;;;;;;;8.35;2.67;;;;;;;;;;21003150;28;20546;-64
2023/08/14 08:42:42;;;;;;;8.18;2.55;;;;;;;;;;21002207;28;20506;-64
2023/08/14 08:52:44;;;;;;;7.30;2.40;;;;;;;;;;21000078;28;20214;-64
2023/08/14 09:02:46;;;;;;;14.43;2.50;;;;;;;;;;20999063;28;20040;-63
2023/08/14 09:12:47;;;;;;;3.85;2.38;;;;;;;;;;20999420;28;20393;-65
2023/08/14 09:22:48;;;;;;;7.40;2.20;;;;;;;;;;20997494;28;20044;-64
2023/08/14 09:32:50;;;;;;;4.55;2.28;;;;;;;;;;20996655;28;20052;-63
2023/08/14 09:42:51;;;;;;;3.55;1.60;;;;;;;;;;20997709;28;20036;-64
2023/08/14 09:52:55;;;;;;;4.03;2.08;;;;;;;;;;20995985;28;20052;-65
2023/08/14 10:02:57;;;;;;;4.68;1.98;;;;;;;;;;20996358;28;20048;-65
2023/08/14 10:13:04;;;;;;;7.18;1.85;;;;;;;;;;20996097;28;20507;-65
2023/08/14 10:23:07;;;;;;;6.00;1.60;;;;;;;;;;20995979;28;20048;-64
2023/08/14 10:33:08;;;;;;;6.43;1.92;;;;;;;;;;20995465;28;20124;-64
2023/08/14 10:43:09;;;;;;;4.82;1.45;;;;;;;;;;20995218;28;20043;-65
2023/08/14 10:53:11;;;;;;;6.82;1.73;;;;;;;;;;20993796;28;20135;-64
2023/08/14 11:03:12;;;;;;;6.03;1.60;;;;;;;;;;20994243;28;20041;-64
2023/08/14 11:13:14;;;;;;;4.40;1.77;;;;;;;;;;21003298;28;20047;-64
2023/08/14 11:23:15;;;;;;;3.17;1.70;;;;;;;;;;21008013;28;20481;-65
2023/08/14 11:33:22;;;;;;;3.70;1.70;;;;;;;;;;21007547;28;20119;-65
2023/08/14 11:43:23;;;;;;;6.43;1.42;;;;;;;;;;21007082;28;20121;-66
2023/08/14 11:53:24;;;;;;;3.97;1.65;;;;;;;;;;21004400;28;20061;-65
2023/08/14 12:03:25;;;;;;;5.32;1.90;;;;;;;;;;21004722;28;20144;-66
2023/08/14 12:13:26;;;;;;;2.85;1.35;;;;;;;;;;21003847;28;20102;-65
2023/08/14 12:23:28;;;;;;;4.60;1.48;;;;;;;;;;21001719;28;20040;-65
2023/08/14 12:33:29;;;;;;;4.63;1.75;;;;;;;;;;21002209;28;20044;-66
2023/08/14 12:43:31;;;;;;;4.45;1.95;;;;;;;;;;21001212;28;20516;-66
2023/08/14 12:53:32;;;;;;;4.72;2.08;;;;;;;;;;21001380;28;20516;-66
2023/08/14 13:03:34;;;;;;;4.40;1.55;;;;;;;;;;20999210;28;20040;-66
2023/08/14 13:13:35;;;;;;;4.20;1.50;;;;;;;;;;20998665;28;20099;-66
2023/08/14 13:23:36;;;;;;;4.90;2.33;;;;;;;;;;20998829;28;20499;-66
2023/08/14 13:33:38;;;;;;;5.43;2.38;;;;;;;;;;20997108;28;20109;-66
2023/08/14 13:43:39;;;;;;;3.72;1.42;;;;;;;;;;20997450;28;20041;-65
2023/08/14 13:53:40;;;;;;;2.00;1.38;;;;;;;;;;20995816;28;20052;-66
2023/08/14 14:03:42;;;;;;;5.82;1.88;;;;;;;;;;20995103;28;20049;-66
2023/08/14 14:13:44;;;;;;;3.55;1.67;;;;;;;;;;20994923;28;20048;-65
2023/08/14 14:23:45;;;;;;;4.82;2.00;;;;;;;;;;20996035;28;20079;-65
2023/08/14 14:33:46;;;;;;;11.15;5.63;;;;;;;;;;20994276;28;20044;-65
2023/08/14 14:43:47;;;;;;;6.97;1.70;;;;;;;;;;21000340;28;20044;-65
2023/08/14 14:53:48;;;;;;;5.85;1.88;;;;;;;;;;21009611;28;20063;-65
2023/08/14 15:03:49;;;;;;;7.88;2.30;;;;;;;;;;21008702;28;20094;-65
2023/08/14 15:13:50;;;;;;;4.63;1.52;;;;;;;;;;21008087;28;20084;-65
2023/08/14 15:23:51;;;;;;;5.70;3.30;;;;;;;;;;21007838;28;20119;-66
2023/08/14 15:33:52;;;;;;;9.15;4.97;;;;;;;;;;21008062;28;20113;-66
2023/08/14 15:43:54;;;;;;;3.95;2.15;;;;;;;;;;21007377;28;20054;-65
2023/08/14 15:53:55;;;;;;;8.30;5.32;;;;;;;;;;21004827;28;20433;-65
2023/08/14 16:03:56;;;;;;;5.28;2.55;;;;;;;;;;21005681;28;20539;-65
2023/08/14 16:13:57;;;;;;;4.28;1.83;;;;;;;;;;21004852;28;20405;-65
2023/08/14 16:23:58;;;;;;;2.25;1.40;;;;;;;;;;21003832;28;20040;-64
2023/08/14 16:33:59;;;;;;;15.35;11.63;;;;;;;;;;21002781;28;20558;-64
2023/08/14 16:44:00;;;;;;;8.75;5.65;;;;;;;;;;21002156;28;20547;-63
2023/08/14 16:54:01;;;;;;;3.92;2.03;;;;;;;;;;20999879;28;20478;-65
2023/08/14 17:04:03;;;;;;;5.47;2.80;;;;;;;;;;21000131;28;20072;-65
2023/08/14 17:14:04;;;;;;;3.85;2.28;;;;;;;;;;20999126;28;20478;-64
2023/08/14 17:24:05;;;;;;;5.05;1.67;;;;;;;;;;20997733;28;20049;-63
2023/08/14 17:34:06;;;;;;;2.90;1.85;;;;;;;;;;20996838;28;20040;-64
2023/08/14 17:44:07;;;;;;;2.13;1.42;;;;;;;;;;20997788;28;20045;-64
2023/08/14 17:54:09;;;;;;;2.08;1.40;;;;;;;;;;20997877;28;20049;-63
2023/08/14 18:04:10;;;;;;;5.85;2.10;;;;;;;;;;20996306;28;20124;-64
2023/08/14 18:14:11;;;;;;;3.00;1.67;;;;;;;;;;20996997;28;20049;-64
2023/08/14 18:24:12;;;;;;;2.03;1.50;;;;;;;;;;21011273;28;20044;-63
2023/08/14 18:34:13;;;;;;;4.35;1.63;;;;;;;;;;21012571;28;20048;-64
2023/08/14 18:44:14;;;;;;;4.63;1.52;;;;;;;;;;21012063;28;20072;-63
2023/08/14 18:54:15;;;;;;;3.08;1.58;;;;;;;;;;21009458;28;20075;-64
2023/08/14 19:04:17;;;;;;;3.17;2.05;;;;;;;;;;21009795;28;20079;-63
2023/08/14 19:14:18;;;;;;;5.13;2.38;;;;;;;;;;21009029;28;20051;-64
2023/08/14 19:24:19;;;;;;;4.18;2.83;;;;;;;;;;21008681;28;20052;-64
2023/08/14 19:34:20;;;;;;;9.88;2.70;;;;;;;;;;21006720;28;20047;-66
2023/08/14 19:44:22;;;;;;;7.95;3.15;;;;;;;;;;21005664;28;20044;-63
2023/08/14 19:54:23;;;;;;;5.03;2.67;;;;;;;;;;21006941;28;20095;-63
2023/08/14 20:04:24;;;;;;;5.15;2.70;;;;;;;;;;21005292;28;20512;-64
2023/08/14 20:14:25;;;;;;;5.50;2.60;;;;;;;;;;21004160;28;20122;-64
2023/08/14 20:24:26;;;;;;;3.53;2.90;;;;;;;;;;21003706;28;20044;-64
2023/08/14 20:34:27;;;;;;;4.90;2.88;;;;;;;;;;21002846;28;20094;-63
2023/08/14 20:44:28;;;;;;;4.72;2.90;;;;;;;;;;21000452;28;20051;-64
2023/08/14 20:54:29;;;;;;;6.35;2.97;;;;;;;;;;21001832;28;20088;-62
2023/08/14 21:04:30;;;;;;;5.25;2.58;;;;;;;;;;21000346;28;20055;-64
2023/08/14 21:14:32;;;;;;;3.83;2.30;;;;;;;;;;20999913;28;20048;-64
2023/08/14 21:24:33;;;;;;;5.82;3.00;;;;;;;;;;20999262;28;20052;-63
2023/08/14 21:34:35;;;;;;;5.78;3.38;;;;;;;;;;20998528;28;20040;-63
2023/08/14 21:44:36;;;;;;;5.25;3.13;;;;;;;;;;20997851;28;20048;-64
2023/08/14 21:54:37;;;;;;;8.80;2.60;;;;;;;;;;20995424;28;20448;-63
2023/08/14 22:04:38;;;;;;;6.53;3.28;;;;;;;;;;20996933;28;20041;-64
2023/08/14 22:14:40;;;;;;;5.78;2.60;;;;;;;;;;20995293;28;20131;-63
2023/08/14 22:24:41;;;;;;;4.20;2.17;;;;;;;;;;20994940;28;20098;-63
2023/08/14 22:34:42;;;;;;;6.05;3.17;;;;;;;;;;20995625;28;20044;-63
2023/08/14 22:44:43;;;;;;;6.43;3.65;;;;;;;;;;20995350;28;20066;-63
2023/08/14 22:54:44;;;;;;;6.80;2.70;;;;;;;;;;20996161;28;20075;-63
2023/08/14 23:04:45;;;;;;;4.38;2.90;;;;;;;;;;20999607;28;20509;-64
2023/08/14 23:14:46;;;;;;;4.20;2.58;;;;;;;;;;21008843;28;20447;-63
2023/08/14 23:24:47;;;;;;;8.05;3.15;;;;;;;;;;21007664;28;20047;-63
2023/08/14 23:34:48;;;;;;;4.85;3.13;;;;;;;;;;21008180;28;20048;-64
2023/08/14 23:44:49;;;;;;;4.43;2.40;;;;;;;;;;21007436;28;20401;-64
2023/08/14 23:54:50;;;;;;;7.97;2.20;;;;;;;;;;21005465;28;20052;-64
